sensor_id;sensor_type;location;lat;lon;timestamp;temperature;humidity
30534;DHT22;17318;52.390;9.754;2022-11-02T00:02:03;14.70;90.00
30534;DHT22;17318;52.390;9.754;2022-11-02T00:04:29;14.60;90.10
30534;DHT22;17318;52.390;9.754;2022-11-02T00:06:54;14.60;90.00
30534;DHT22;17318;52.390;9.754;2022-11-02T00:09:20;14.60;90.10
30534;DHT22;17318;52.390;9.754;2022-11-02T00:11:46;14.60;90.20
30534;DHT22;17318;52.390;9.754;2022-11-02T00:14:11;14.60;90.30
30534;DHT22;17318;52.390;9.754;2022-11-02T00:16:38;14.60;90.30
30534;DHT22;17318;52.390;9.754;2022-11-02T00:19:05;14.50;90.30
30534;DHT22;17318;52.390;9.754;2022-11-02T00:21:32;14.50;90.40
30534;DHT22;17318;52.390;9.754;2022-11-02T00:23:59;14.50;90.50
30534;DHT22;17318;52.390;9.754;2022-11-02T00:26:26;14.50;90.50
30534;DHT22;17318;52.390;9.754;2022-11-02T00:28:52;14.50;90.60
30534;DHT22;17318;52.390;9.754;2022-11-02T00:31:18;14.50;90.60
30534;DHT22;17318;52.390;9.754;2022-11-02T00:33:44;14.50;90.70
30534;DHT22;17318;52.390;9.754;2022-11-02T00:36:09;14.40;90.70
30534;DHT22;17318;52.390;9.754;2022-11-02T00:38:35;14.40;90.70
30534;DHT22;17318;52.390;9.754;2022-11-02T00:41:01;14.50;90.70
30534;DHT22;17318;52.390;9.754;2022-11-02T00:43:26;14.40;90.70
30534;DHT22;17318;52.390;9.754;2022-11-02T00:45:52;14.40;90.80
30534;DHT22;17318;52.390;9.754;2022-11-02T00:48:18;14.40;90.90
30534;DHT22;17318;52.390;9.754;2022-11-02T00:50:43;14.40;90.90
30534;DHT22;17318;52.390;9.754;2022-11-02T00:53:09;14.40;90.90
30534;DHT22;17318;52.390;9.754;2022-11-02T00:55:35;14.40;90.90
30534;DHT22;17318;52.390;9.754;2022-11-02T00:58:01;14.40;91.00
30534;DHT22;17318;52.390;9.754;2022-11-02T01:00:26;14.40;91.00
30534;DHT22;17318;52.390;9.754;2022-11-02T01:02:52;14.30;91.10
30534;DHT22;17318;52.390;9.754;2022-11-02T01:05:18;14.30;91.20
30534;DHT22;17318;52.390;9.754;2022-11-02T01:07:43;14.30;91.20
30534;DHT22;17318;52.390;9.754;2022-11-02T01:10:10;14.30;91.30
30534;DHT22;17318;52.390;9.754;2022-11-02T01:12:37;14.30;91.30
30534;DHT22;17318;52.390;9.754;2022-11-02T01:15:04;14.30;91.30
30534;DHT22;17318;52.390;9.754;2022-11-02T01:17:30;14.20;91.40
30534;DHT22;17318;52.390;9.754;2022-11-02T01:19:56;14.20;91.40
30534;DHT22;17318;52.390;9.754;2022-11-02T01:22:21;14.20;91.40
30534;DHT22;17318;52.390;9.754;2022-11-02T01:24:47;14.20;91.50
30534;DHT22;17318;52.390;9.754;2022-11-02T01:27:13;14.10;91.60
30534;DHT22;17318;52.390;9.754;2022-11-02T01:29:38;14.20;91.60
30534;DHT22;17318;52.390;9.754;2022-11-02T01:32:04;14.20;91.70
30534;DHT22;17318;52.390;9.754;2022-11-02T01:34:29;14.20;91.60
30534;DHT22;17318;52.390;9.754;2022-11-02T01:36:55;14.20;91.60
30534;DHT22;17318;52.390;9.754;2022-11-02T01:39:21;14.20;91.70
30534;DHT22;17318;52.390;9.754;2022-11-02T01:41:52;14.20;91.70
30534;DHT22;17318;52.390;9.754;2022-11-02T01:44:29;14.30;91.60
30534;DHT22;17318;52.390;9.754;2022-11-02T01:47:02;14.20;91.50
30534;DHT22;17318;52.390;9.754;2022-11-02T01:49:32;14.20;91.70
30534;DHT22;17318;52.390;9.754;2022-11-02T01:52:05;14.10;92.10
30534;DHT22;17318;52.390;9.754;2022-11-02T01:54:36;14.20;91.90
30534;DHT22;17318;52.390;9.754;2022-11-02T01:57:07;14.20;91.80
30534;DHT22;17318;52.390;9.754;2022-11-02T01:59:51;14.10;92.00
30534;DHT22;17318;52.390;9.754;2022-11-02T02:02:23;14.20;92.00
30534;DHT22;17318;52.390;9.754;2022-11-02T02:05:02;14.20;92.00
30534;DHT22;17318;52.390;9.754;2022-11-02T02:07:30;14.20;92.00
30534;DHT22;17318;52.390;9.754;2022-11-02T02:09:56;14.10;92.10
30534;DHT22;17318;52.390;9.754;2022-11-02T02:12:23;14.10;91.90
30534;DHT22;17318;52.390;9.754;2022-11-02T02:14:49;14.20;92.00
30534;DHT22;17318;52.390;9.754;2022-11-02T02:22:58;14.20;92.00
30534;DHT22;17318;52.390;9.754;2022-11-02T02:28:41;14.20;92.00
30534;DHT22;17318;52.390;9.754;2022-11-02T02:36:46;14.10;92.20
30534;DHT22;17318;52.390;9.754;2022-11-02T02:45:16;14.20;92.30
30534;DHT22;17318;52.390;9.754;2022-11-02T02:47:59;14.20;92.40
30534;DHT22;17318;52.390;9.754;2022-11-02T02:50:29;14.20;92.40
30534;DHT22;17318;52.390;9.754;2022-11-02T02:52:58;14.20;92.40
30534;DHT22;17318;52.390;9.754;2022-11-02T02:55:31;14.20;92.60
30534;DHT22;17318;52.390;9.754;2022-11-02T02:57:59;14.20;92.50
30534;DHT22;17318;52.390;9.754;2022-11-02T03:00:26;14.20;92.60
30534;DHT22;17318;52.390;9.754;2022-11-02T03:02:53;14.20;92.90
30534;DHT22;17318;52.390;9.754;2022-11-02T03:05:33;14.20;92.50
30534;DHT22;17318;52.390;9.754;2022-11-02T03:08:11;14.20;92.60
30534;DHT22;17318;52.390;9.754;2022-11-02T03:11:28;14.20;92.80
30534;DHT22;17318;52.390;9.754;2022-11-02T03:16:32;14.20;92.90
30534;DHT22;17318;52.390;9.754;2022-11-02T03:21:54;14.20;92.90
30534;DHT22;17318;52.390;9.754;2022-11-02T03:30:16;14.20;93.00
30534;DHT22;17318;52.390;9.754;2022-11-02T03:38:13;14.30;93.10
30534;DHT22;17318;52.390;9.754;2022-11-02T03:40:45;14.30;93.10
30534;DHT22;17318;52.390;9.754;2022-11-02T03:43:12;14.30;93.20
30534;DHT22;17318;52.390;9.754;2022-11-02T03:45:48;14.30;93.60
30534;DHT22;17318;52.390;9.754;2022-11-02T03:48:17;14.40;93.30
30534;DHT22;17318;52.390;9.754;2022-11-02T03:50:46;14.30;93.50
30534;DHT22;17318;52.390;9.754;2022-11-02T03:53:40;14.40;93.60
30534;DHT22;17318;52.390;9.754;2022-11-02T03:56:11;14.30;93.80
30534;DHT22;17318;52.390;9.754;2022-11-02T03:58:38;14.30;93.80
30534;DHT22;17318;52.390;9.754;2022-11-02T04:01:05;14.40;93.90
30534;DHT22;17318;52.390;9.754;2022-11-02T04:03:33;14.40;94.10
30534;DHT22;17318;52.390;9.754;2022-11-02T04:05:59;14.40;94.10
30534;DHT22;17318;52.390;9.754;2022-11-02T04:08:41;14.30;94.20
30534;DHT22;17318;52.390;9.754;2022-11-02T04:11:08;14.30;94.30
30534;DHT22;17318;52.390;9.754;2022-11-02T04:13:52;14.30;94.20
30534;DHT22;17318;52.390;9.754;2022-11-02T04:16:37;14.30;94.20
30534;DHT22;17318;52.390;9.754;2022-11-02T04:19:02;14.30;94.20
30534;DHT22;17318;52.390;9.754;2022-11-02T04:21:47;14.30;94.20
30534;DHT22;17318;52.390;9.754;2022-11-02T04:24:31;14.30;94.10
30534;DHT22;17318;52.390;9.754;2022-11-02T04:27:15;14.40;94.10
30534;DHT22;17318;52.390;9.754;2022-11-02T04:29:41;14.40;94.00
30534;DHT22;17318;52.390;9.754;2022-11-02T04:32:07;14.40;94.00
30534;DHT22;17318;52.390;9.754;2022-11-02T04:34:32;14.40;94.00
30534;DHT22;17318;52.390;9.754;2022-11-02T04:36:58;14.40;94.00
30534;DHT22;17318;52.390;9.754;2022-11-02T04:39:23;14.30;94.00
30534;DHT22;17318;52.390;9.754;2022-11-02T04:41:49;14.20;94.00
30534;DHT22;17318;52.390;9.754;2022-11-02T04:44:15;14.20;94.00
30534;DHT22;17318;52.390;9.754;2022-11-02T04:46:42;14.20;94.00
30534;DHT22;17318;52.390;9.754;2022-11-02T04:49:09;14.20;94.00
30534;DHT22;17318;52.390;9.754;2022-11-02T04:51:36;14.20;94.00
30534;DHT22;17318;52.390;9.754;2022-11-02T04:54:02;14.10;94.10
30534;DHT22;17318;52.390;9.754;2022-11-02T04:56:28;14.10;94.10
30534;DHT22;17318;52.390;9.754;2022-11-02T04:58:57;14.10;94.00
30534;DHT22;17318;52.390;9.754;2022-11-02T05:01:25;14.10;94.20
30534;DHT22;17318;52.390;9.754;2022-11-02T05:03:51;14.10;94.20
30534;DHT22;17318;52.390;9.754;2022-11-02T05:06:19;14.10;94.20
30534;DHT22;17318;52.390;9.754;2022-11-02T05:08:45;14.00;94.20
30534;DHT22;17318;52.390;9.754;2022-11-02T05:11:11;14.10;94.20
30534;DHT22;17318;52.390;9.754;2022-11-02T05:13:38;14.00;94.20
30534;DHT22;17318;52.390;9.754;2022-11-02T05:16:05;14.00;94.20
30534;DHT22;17318;52.390;9.754;2022-11-02T05:18:31;14.00;94.20
30534;DHT22;17318;52.390;9.754;2022-11-02T05:20:59;14.10;94.20
30534;DHT22;17318;52.390;9.754;2022-11-02T05:23:25;14.00;94.20
30534;DHT22;17318;52.390;9.754;2022-11-02T05:25:56;14.00;94.20
30534;DHT22;17318;52.390;9.754;2022-11-02T05:28:22;14.00;94.30
30534;DHT22;17318;52.390;9.754;2022-11-02T05:30:49;13.90;94.40
30534;DHT22;17318;52.390;9.754;2022-11-02T05:33:15;13.90;94.40
30534;DHT22;17318;52.390;9.754;2022-11-02T05:35:41;13.90;94.50
30534;DHT22;17318;52.390;9.754;2022-11-02T05:38:06;13.90;94.50
30534;DHT22;17318;52.390;9.754;2022-11-02T05:40:32;13.80;94.60
30534;DHT22;17318;52.390;9.754;2022-11-02T05:43:01;13.90;94.50
30534;DHT22;17318;52.390;9.754;2022-11-02T05:45:27;13.90;94.70
30534;DHT22;17318;52.390;9.754;2022-11-02T05:47:53;13.90;94.60
30534;DHT22;17318;52.390;9.754;2022-11-02T05:50:19;13.90;94.60
30534;DHT22;17318;52.390;9.754;2022-11-02T05:52:45;13.90;94.50
30534;DHT22;17318;52.390;9.754;2022-11-02T05:55:11;13.80;94.80
30534;DHT22;17318;52.390;9.754;2022-11-02T05:57:37;13.90;94.70
30534;DHT22;17318;52.390;9.754;2022-11-02T06:00:03;13.90;94.70
30534;DHT22;17318;52.390;9.754;2022-11-02T06:02:29;13.90;94.70
30534;DHT22;17318;52.390;9.754;2022-11-02T06:04:55;13.90;94.80
30534;DHT22;17318;52.390;9.754;2022-11-02T06:07:21;13.90;94.70
30534;DHT22;17318;52.390;9.754;2022-11-02T06:09:46;13.90;94.70
30534;DHT22;17318;52.390;9.754;2022-11-02T06:12:12;13.90;94.80
30534;DHT22;17318;52.390;9.754;2022-11-02T06:14:38;13.80;94.90
30534;DHT22;17318;52.390;9.754;2022-11-02T06:17:03;13.90;94.80
30534;DHT22;17318;52.390;9.754;2022-11-02T06:19:29;13.80;95.00
30534;DHT22;17318;52.390;9.754;2022-11-02T06:21:55;13.80;95.00
30534;DHT22;17318;52.390;9.754;2022-11-02T06:24:21;13.80;94.90
30534;DHT22;17318;52.390;9.754;2022-11-02T06:26:46;13.80;95.00
30534;DHT22;17318;52.390;9.754;2022-11-02T06:29:13;13.80;94.90
30534;DHT22;17318;52.390;9.754;2022-11-02T06:31:39;13.80;94.90
30534;DHT22;17318;52.390;9.754;2022-11-02T06:34:05;13.80;95.60
30534;DHT22;17318;52.390;9.754;2022-11-02T06:36:31;13.90;95.20
30534;DHT22;17318;52.390;9.754;2022-11-02T06:38:56;13.80;95.10
30534;DHT22;17318;52.390;9.754;2022-11-02T06:41:22;13.90;95.00
30534;DHT22;17318;52.390;9.754;2022-11-02T06:43:48;13.80;95.00
30534;DHT22;17318;52.390;9.754;2022-11-02T06:46:13;13.90;95.10
30534;DHT22;17318;52.390;9.754;2022-11-02T06:48:39;13.90;95.00
30534;DHT22;17318;52.390;9.754;2022-11-02T06:51:05;13.90;95.10
30534;DHT22;17318;52.390;9.754;2022-11-02T06:53:31;13.90;94.90
30534;DHT22;17318;52.390;9.754;2022-11-02T06:55:58;13.90;95.00
30534;DHT22;17318;52.390;9.754;2022-11-02T06:58:24;13.90;95.10
30534;DHT22;17318;52.390;9.754;2022-11-02T07:00:59;13.90;94.90
30534;DHT22;17318;52.390;9.754;2022-11-02T07:03:26;13.90;95.00
30534;DHT22;17318;52.390;9.754;2022-11-02T07:05:52;13.90;95.10
30534;DHT22;17318;52.390;9.754;2022-11-02T07:08:19;14.00;95.10
30534;DHT22;17318;52.390;9.754;2022-11-02T07:10:45;14.00;95.00
30534;DHT22;17318;52.390;9.754;2022-11-02T07:13:10;14.00;95.00
30534;DHT22;17318;52.390;9.754;2022-11-02T07:15:36;14.00;95.00
30534;DHT22;17318;52.390;9.754;2022-11-02T07:18:02;14.00;95.10
30534;DHT22;17318;52.390;9.754;2022-11-02T07:20:28;14.00;95.00
30534;DHT22;17318;52.390;9.754;2022-11-02T07:22:56;14.00;95.00
30534;DHT22;17318;52.390;9.754;2022-11-02T07:25:23;14.10;95.00
30534;DHT22;17318;52.390;9.754;2022-11-02T07:27:49;14.10;94.90
30534;DHT22;17318;52.390;9.754;2022-11-02T07:30:15;14.20;95.00
30534;DHT22;17318;52.390;9.754;2022-11-02T07:32:41;14.20;95.00
30534;DHT22;17318;52.390;9.754;2022-11-02T07:35:09;14.20;94.90
30534;DHT22;17318;52.390;9.754;2022-11-02T07:37:36;14.30;95.00
30534;DHT22;17318;52.390;9.754;2022-11-02T07:40:02;14.30;95.00
30534;DHT22;17318;52.390;9.754;2022-11-02T07:42:28;14.30;94.90
30534;DHT22;17318;52.390;9.754;2022-11-02T07:44:53;14.40;95.00
30534;DHT22;17318;52.390;9.754;2022-11-02T07:47:19;14.40;94.90
30534;DHT22;17318;52.390;9.754;2022-11-02T07:49:45;14.40;94.80
30534;DHT22;17318;52.390;9.754;2022-11-02T07:52:11;14.40;94.90
30534;DHT22;17318;52.390;9.754;2022-11-02T07:54:36;14.50;94.80
30534;DHT22;17318;52.390;9.754;2022-11-02T07:57:02;14.50;94.80
30534;DHT22;17318;52.390;9.754;2022-11-02T07:59:28;14.50;94.70
30534;DHT22;17318;52.390;9.754;2022-11-02T08:01:54;14.60;94.60
30534;DHT22;17318;52.390;9.754;2022-11-02T08:04:19;14.60;94.60
30534;DHT22;17318;52.390;9.754;2022-11-02T08:06:45;14.70;94.50
30534;DHT22;17318;52.390;9.754;2022-11-02T08:09:11;14.70;94.30
30534;DHT22;17318;52.390;9.754;2022-11-02T08:11:36;14.70;94.20
30534;DHT22;17318;52.390;9.754;2022-11-02T08:14:02;14.80;94.20
30534;DHT22;17318;52.390;9.754;2022-11-02T08:16:28;14.80;94.00
30534;DHT22;17318;52.390;9.754;2022-11-02T08:18:54;14.90;94.00
30534;DHT22;17318;52.390;9.754;2022-11-02T08:21:19;14.90;93.60
30534;DHT22;17318;52.390;9.754;2022-11-02T08:23:45;14.90;93.80
30534;DHT22;17318;52.390;9.754;2022-11-02T08:26:11;15.00;93.70
30534;DHT22;17318;52.390;9.754;2022-11-02T08:28:36;14.90;93.50
30534;DHT22;17318;52.390;9.754;2022-11-02T08:31:05;14.90;93.50
30534;DHT22;17318;52.390;9.754;2022-11-02T08:33:32;15.00;93.60
30534;DHT22;17318;52.390;9.754;2022-11-02T08:36:02;14.90;93.40
30534;DHT22;17318;52.390;9.754;2022-11-02T08:38:29;14.90;93.20
30534;DHT22;17318;52.390;9.754;2022-11-02T08:40:55;15.00;93.40
30534;DHT22;17318;52.390;9.754;2022-11-02T08:43:20;15.10;93.30
30534;DHT22;17318;52.390;9.754;2022-11-02T08:45:46;15.00;93.20
30534;DHT22;17318;52.390;9.754;2022-11-02T08:48:12;15.00;93.20
30534;DHT22;17318;52.390;9.754;2022-11-02T08:50:38;15.00;93.20
30534;DHT22;17318;52.390;9.754;2022-11-02T08:53:04;15.00;93.10
30534;DHT22;17318;52.390;9.754;2022-11-02T08:55:30;15.00;93.00
30534;DHT22;17318;52.390;9.754;2022-11-02T08:57:57;15.00;92.70
30534;DHT22;17318;52.390;9.754;2022-11-02T09:00:26;15.00;92.60
30534;DHT22;17318;52.390;9.754;2022-11-02T09:03:12;15.20;92.80
30534;DHT22;17318;52.390;9.754;2022-11-02T09:05:40;15.30;92.60
30534;DHT22;17318;52.390;9.754;2022-11-02T09:08:06;15.20;92.60
30534;DHT22;17318;52.390;9.754;2022-11-02T09:10:34;15.20;92.50
30534;DHT22;17318;52.390;9.754;2022-11-02T09:13:01;15.20;92.50
30534;DHT22;17318;52.390;9.754;2022-11-02T09:15:28;15.20;92.60
30534;DHT22;17318;52.390;9.754;2022-11-02T09:17:54;15.20;92.70
30534;DHT22;17318;52.390;9.754;2022-11-02T09:20:20;15.20;92.60
30534;DHT22;17318;52.390;9.754;2022-11-02T09:22:47;15.10;92.70
30534;DHT22;17318;52.390;9.754;2022-11-02T09:25:13;15.10;92.80
30534;DHT22;17318;52.390;9.754;2022-11-02T09:27:40;15.20;92.80
30534;DHT22;17318;52.390;9.754;2022-11-02T09:30:07;15.30;92.60
30534;DHT22;17318;52.390;9.754;2022-11-02T09:32:33;15.20;92.40
30534;DHT22;17318;52.390;9.754;2022-11-02T09:35:00;15.40;92.30
30534;DHT22;17318;52.390;9.754;2022-11-02T09:37:27;15.40;92.20
30534;DHT22;17318;52.390;9.754;2022-11-02T09:39:53;15.50;92.10
30534;DHT22;17318;52.390;9.754;2022-11-02T09:42:30;15.50;92.00
30534;DHT22;17318;52.390;9.754;2022-11-02T09:45:00;15.50;92.10
30534;DHT22;17318;52.390;9.754;2022-11-02T09:47:28;15.50;91.80
30534;DHT22;17318;52.390;9.754;2022-11-02T09:49:58;15.80;91.50
30534;DHT22;17318;52.390;9.754;2022-11-02T09:52:36;15.90;91.20
30534;DHT22;17318;52.390;9.754;2022-11-02T09:55:10;16.00;91.40
30534;DHT22;17318;52.390;9.754;2022-11-02T09:57:39;16.30;91.50
30534;DHT22;17318;52.390;9.754;2022-11-02T10:00:12;16.50;90.70
30534;DHT22;17318;52.390;9.754;2022-11-02T10:08:08;17.10;88.50
30534;DHT22;17318;52.390;9.754;2022-11-02T10:10:47;16.90;87.50
30534;DHT22;17318;52.390;9.754;2022-11-02T10:16:14;17.40;87.10
30534;DHT22;17318;52.390;9.754;2022-11-02T10:18:42;17.50;84.50
30534;DHT22;17318;52.390;9.754;2022-11-02T10:21:19;17.30;84.60
30534;DHT22;17318;52.390;9.754;2022-11-02T10:23:52;17.00;85.20
30534;DHT22;17318;52.390;9.754;2022-11-02T10:26:23;16.80;85.70
30534;DHT22;17318;52.390;9.754;2022-11-02T10:28:58;17.00;85.70
30534;DHT22;17318;52.390;9.754;2022-11-02T10:31:33;17.30;85.40
30534;DHT22;17318;52.390;9.754;2022-11-02T10:34:11;17.50;85.40
30534;DHT22;17318;52.390;9.754;2022-11-02T10:40:02;17.50;82.70
30534;DHT22;17318;52.390;9.754;2022-11-02T10:42:43;17.90;82.40
30534;DHT22;17318;52.390;9.754;2022-11-02T10:51:19;18.90;80.50
30534;DHT22;17318;52.390;9.754;2022-11-02T10:53:51;18.10;78.40
30534;DHT22;17318;52.390;9.754;2022-11-02T10:56:22;18.00;78.90
30534;DHT22;17318;52.390;9.754;2022-11-02T10:59:14;18.40;78.60
30534;DHT22;17318;52.390;9.754;2022-11-02T11:04:26;18.50;76.00
30534;DHT22;17318;52.390;9.754;2022-11-02T11:06:53;18.10;76.60
30534;DHT22;17318;52.390;9.754;2022-11-02T11:09:27;18.20;78.30
30534;DHT22;17318;52.390;9.754;2022-11-02T11:12:04;18.80;77.50
30534;DHT22;17318;52.390;9.754;2022-11-02T11:14:57;18.40;76.80
30534;DHT22;17318;52.390;9.754;2022-11-02T11:17:31;18.90;76.50
30534;DHT22;17318;52.390;9.754;2022-11-02T11:19:58;19.20;75.10
30534;DHT22;17318;52.390;9.754;2022-11-02T11:22:28;18.80;75.40
30534;DHT22;17318;52.390;9.754;2022-11-02T11:25:18;18.50;74.70
30534;DHT22;17318;52.390;9.754;2022-11-02T11:27:56;18.50;75.60
30534;DHT22;17318;52.390;9.754;2022-11-02T11:30:29;19.20;73.40
30534;DHT22;17318;52.390;9.754;2022-11-02T11:32:56;18.90;73.90
30534;DHT22;17318;52.390;9.754;2022-11-02T11:35:31;18.70;74.20
30534;DHT22;17318;52.390;9.754;2022-11-02T11:37:59;18.80;73.70
30534;DHT22;17318;52.390;9.754;2022-11-02T11:40:31;18.80;74.60
30534;DHT22;17318;52.390;9.754;2022-11-02T11:42:58;18.40;74.40
30534;DHT22;17318;52.390;9.754;2022-11-02T11:45:25;18.70;75.60
30534;DHT22;17318;52.390;9.754;2022-11-02T11:47:58;18.70;77.90
30534;DHT22;17318;52.390;9.754;2022-11-02T11:50:25;18.70;75.00
30534;DHT22;17318;52.390;9.754;2022-11-02T11:53:26;18.50;74.60
30534;DHT22;17318;52.390;9.754;2022-11-02T11:55:54;18.30;75.30
30534;DHT22;17318;52.390;9.754;2022-11-02T11:58:30;18.40;75.00
30534;DHT22;17318;52.390;9.754;2022-11-02T12:03:30;17.70;75.40
30534;DHT22;17318;52.390;9.754;2022-11-02T12:12:25;17.70;76.50
30534;DHT22;17318;52.390;9.754;2022-11-02T12:15:18;17.40;76.50
30534;DHT22;17318;52.390;9.754;2022-11-02T12:18:04;17.30;77.70
30534;DHT22;17318;52.390;9.754;2022-11-02T12:26:25;16.90;76.60
30534;DHT22;17318;52.390;9.754;2022-11-02T12:29:13;16.80;75.80
30534;DHT22;17318;52.390;9.754;2022-11-02T12:41:12;16.80;76.10
30534;DHT22;17318;52.390;9.754;2022-11-02T12:43:47;16.90;76.00
30534;DHT22;17318;52.390;9.754;2022-11-02T12:46:30;16.50;76.50
30534;DHT22;17318;52.390;9.754;2022-11-02T12:51:43;16.60;77.70
30534;DHT22;17318;52.390;9.754;2022-11-02T12:54:24;16.70;77.30
30534;DHT22;17318;52.390;9.754;2022-11-02T12:56:52;16.60;78.40
30534;DHT22;17318;52.390;9.754;2022-11-02T12:59:29;16.70;77.60
30534;DHT22;17318;52.390;9.754;2022-11-02T13:02:05;16.80;77.00
30534;DHT22;17318;52.390;9.754;2022-11-02T13:07:28;16.70;76.60
30534;DHT22;17318;52.390;9.754;2022-11-02T13:10:02;16.80;76.70
30534;DHT22;17318;52.390;9.754;2022-11-02T13:12:31;16.90;77.10
30534;DHT22;17318;52.390;9.754;2022-11-02T13:14:59;17.10;76.30
30534;DHT22;17318;52.390;9.754;2022-11-02T13:17:45;17.00;76.00
30534;DHT22;17318;52.390;9.754;2022-11-02T13:20:22;16.90;76.40
30534;DHT22;17318;52.390;9.754;2022-11-02T13:25:36;16.70;77.00
30534;DHT22;17318;52.390;9.754;2022-11-02T13:28:34;16.60;77.50
30534;DHT22;17318;52.390;9.754;2022-11-02T13:31:04;16.50;77.30
30534;DHT22;17318;52.390;9.754;2022-11-02T13:33:40;16.60;77.60
30534;DHT22;17318;52.390;9.754;2022-11-02T13:36:09;16.70;77.70
30534;DHT22;17318;52.390;9.754;2022-11-02T13:38:41;16.50;77.40
30534;DHT22;17318;52.390;9.754;2022-11-02T13:41:22;16.50;77.80
30534;DHT22;17318;52.390;9.754;2022-11-02T13:49:17;16.60;77.40
30534;DHT22;17318;52.390;9.754;2022-11-02T13:51:57;16.60;77.40
30534;DHT22;17318;52.390;9.754;2022-11-02T13:54:28;16.50;77.70
30534;DHT22;17318;52.390;9.754;2022-11-02T13:56:57;16.60;77.30
30534;DHT22;17318;52.390;9.754;2022-11-02T13:59:29;16.70;77.30
30534;DHT22;17318;52.390;9.754;2022-11-02T14:01:58;16.70;76.40
30534;DHT22;17318;52.390;9.754;2022-11-02T14:04:25;16.80;76.10
30534;DHT22;17318;52.390;9.754;2022-11-02T14:06:58;16.50;75.60
30534;DHT22;17318;52.390;9.754;2022-11-02T14:09:29;16.30;76.20
30534;DHT22;17318;52.390;9.754;2022-11-02T14:14:37;16.40;76.20
30534;DHT22;17318;52.390;9.754;2022-11-02T14:17:16;16.20;76.40
30534;DHT22;17318;52.390;9.754;2022-11-02T14:22:13;16.30;76.40
30534;DHT22;17318;52.390;9.754;2022-11-02T14:48:18;16.40;78.00
30534;DHT22;17318;52.390;9.754;2022-11-02T14:51:00;16.40;78.20
30534;DHT22;17318;52.390;9.754;2022-11-02T14:53:29;16.20;78.20
30534;DHT22;17318;52.390;9.754;2022-11-02T14:55:56;16.30;78.50
30534;DHT22;17318;52.390;9.754;2022-11-02T14:58:28;16.40;78.50
30534;DHT22;17318;52.390;9.754;2022-11-02T15:01:00;16.20;78.60
30534;DHT22;17318;52.390;9.754;2022-11-02T15:08:47;16.20;78.70
30534;DHT22;17318;52.390;9.754;2022-11-02T15:11:42;16.20;78.80
30534;DHT22;17318;52.390;9.754;2022-11-02T15:19:44;16.00;79.30
30534;DHT22;17318;52.390;9.754;2022-11-02T15:27:31;16.00;79.60
30534;DHT22;17318;52.390;9.754;2022-11-02T15:29:59;16.00;79.50
30534;DHT22;17318;52.390;9.754;2022-11-02T15:32:27;16.00;79.60
30534;DHT22;17318;52.390;9.754;2022-11-02T15:34:54;15.90;79.50
30534;DHT22;17318;52.390;9.754;2022-11-02T15:37:22;15.90;79.70
30534;DHT22;17318;52.390;9.754;2022-11-02T15:39:50;15.90;79.90
30534;DHT22;17318;52.390;9.754;2022-11-02T15:42:47;15.80;79.80
30534;DHT22;17318;52.390;9.754;2022-11-02T15:47:56;15.70;79.90
30534;DHT22;17318;52.390;9.754;2022-11-02T15:55:48;15.80;79.50
30534;DHT22;17318;52.390;9.754;2022-11-02T16:01:26;15.60;79.30
30534;DHT22;17318;52.390;9.754;2022-11-02T16:04:00;15.60;79.10
30534;DHT22;17318;52.390;9.754;2022-11-02T16:06:29;15.60;79.10
30534;DHT22;17318;52.390;9.754;2022-11-02T16:08:58;15.50;79.30
30534;DHT22;17318;52.390;9.754;2022-11-02T16:11:24;15.50;79.10
30534;DHT22;17318;52.390;9.754;2022-11-02T16:13:51;15.50;78.80
30534;DHT22;17318;52.390;9.754;2022-11-02T16:16:20;15.50;78.90
30534;DHT22;17318;52.390;9.754;2022-11-02T16:18:51;15.50;79.30
30534;DHT22;17318;52.390;9.754;2022-11-02T16:21:20;15.40;79.50
30534;DHT22;17318;52.390;9.754;2022-11-02T16:23:56;15.40;79.50
30534;DHT22;17318;52.390;9.754;2022-11-02T16:26:25;15.40;79.60
30534;DHT22;17318;52.390;9.754;2022-11-02T16:28:55;15.30;79.50
30534;DHT22;17318;52.390;9.754;2022-11-02T16:31:24;15.40;79.70
30534;DHT22;17318;52.390;9.754;2022-11-02T16:33:57;15.30;79.80
30534;DHT22;17318;52.390;9.754;2022-11-02T16:36:25;15.30;80.10
30534;DHT22;17318;52.390;9.754;2022-11-02T16:39:02;15.30;80.20
30534;DHT22;17318;52.390;9.754;2022-11-02T16:41:30;15.20;80.40
30534;DHT22;17318;52.390;9.754;2022-11-02T16:44:09;15.20;80.60
30534;DHT22;17318;52.390;9.754;2022-11-02T16:46:49;15.20;80.50
30534;DHT22;17318;52.390;9.754;2022-11-02T16:49:18;15.10;80.60
30534;DHT22;17318;52.390;9.754;2022-11-02T16:51:51;15.10;80.90
30534;DHT22;17318;52.390;9.754;2022-11-02T16:59:30;15.00;81.50
30534;DHT22;17318;52.390;9.754;2022-11-02T17:02:00;15.00;81.60
30534;DHT22;17318;52.390;9.754;2022-11-02T17:04:29;15.00;82.00
30534;DHT22;17318;52.390;9.754;2022-11-02T17:07:26;14.90;82.00
30534;DHT22;17318;52.390;9.754;2022-11-02T17:09:55;14.80;82.20
30534;DHT22;17318;52.390;9.754;2022-11-02T17:12:36;14.80;82.20
30534;DHT22;17318;52.390;9.754;2022-11-02T17:15:17;14.80;82.40
30534;DHT22;17318;52.390;9.754;2022-11-02T17:17:43;14.70;82.90
30534;DHT22;17318;52.390;9.754;2022-11-02T17:22:38;14.40;84.30
30534;DHT22;17318;52.390;9.754;2022-11-02T17:25:22;14.40;84.90
30534;DHT22;17318;52.390;9.754;2022-11-02T17:27:50;14.30;85.30
30534;DHT22;17318;52.390;9.754;2022-11-02T17:35:32;14.10;85.80
30534;DHT22;17318;52.390;9.754;2022-11-02T17:37:58;14.10;86.00
30534;DHT22;17318;52.390;9.754;2022-11-02T17:40:24;14.10;86.00
30534;DHT22;17318;52.390;9.754;2022-11-02T17:42:50;14.00;86.30
30534;DHT22;17318;52.390;9.754;2022-11-02T17:45:27;14.00;86.00
30534;DHT22;17318;52.390;9.754;2022-11-02T17:47:54;14.00;85.80
30534;DHT22;17318;52.390;9.754;2022-11-02T17:50:20;13.90;85.90
30534;DHT22;17318;52.390;9.754;2022-11-02T17:52:46;13.90;86.10
30534;DHT22;17318;52.390;9.754;2022-11-02T17:55:18;13.80;86.00
30534;DHT22;17318;52.390;9.754;2022-11-02T17:57:45;13.80;86.30
30534;DHT22;17318;52.390;9.754;2022-11-02T18:00:11;13.80;86.70
30534;DHT22;17318;52.390;9.754;2022-11-02T18:02:40;13.70;87.30
30534;DHT22;17318;52.390;9.754;2022-11-02T18:05:26;13.70;87.20
30534;DHT22;17318;52.390;9.754;2022-11-02T18:07:54;13.60;86.90
30534;DHT22;17318;52.390;9.754;2022-11-02T18:10:22;13.60;87.50
30534;DHT22;17318;52.390;9.754;2022-11-02T18:12:48;13.50;87.80
30534;DHT22;17318;52.390;9.754;2022-11-02T18:15:18;13.50;87.40
30534;DHT22;17318;52.390;9.754;2022-11-02T18:17:44;13.50;87.50
30534;DHT22;17318;52.390;9.754;2022-11-02T18:20:11;13.50;87.90
30534;DHT22;17318;52.390;9.754;2022-11-02T18:22:37;13.50;88.40
30534;DHT22;17318;52.390;9.754;2022-11-02T18:25:05;13.40;88.40
30534;DHT22;17318;52.390;9.754;2022-11-02T18:27:31;13.40;88.50
30534;DHT22;17318;52.390;9.754;2022-11-02T18:29:56;13.30;88.40
30534;DHT22;17318;52.390;9.754;2022-11-02T18:32:22;13.30;88.20